sensor_id;sensor_type;location;lat;lon;timestamp;temperature;humidity
70534;SHT31;58088;51.186;17.130;2023-06-22T00:00:56;24.36;65.81
70534;SHT31;58088;51.186;17.130;2023-06-22T00:03:23;24.34;65.85
70534;SHT31;58088;51.186;17.130;2023-06-22T00:05:51;24.31;66.06
70534;SHT31;58088;51.186;17.130;2023-06-22T00:08:18;24.25;66.17
70534;SHT31;58088;51.186;17.130;2023-06-22T00:10:45;24.26;66.17
70534;SHT31;58088;51.186;17.130;2023-06-22T00:13:12;24.28;66.18
70534;SHT31;58088;51.186;17.130;2023-06-22T00:15:40;24.31;66.24
70534;SHT31;58088;51.186;17.130;2023-06-22T00:18:07;24.32;66.28
70534;SHT31;58088;51.186;17.130;2023-06-22T00:20:36;24.34;66.22
70534;SHT31;58088;51.186;17.130;2023-06-22T00:23:03;24.36;66.15
70534;SHT31;58088;51.186;17.130;2023-06-22T00:25:35;24.33;66.13
70534;SHT31;58088;51.186;17.130;2023-06-22T00:28:03;24.33;66.17
70534;SHT31;58088;51.186;17.130;2023-06-22T00:30:30;24.32;66.34
70534;SHT31;58088;51.186;17.130;2023-06-22T00:32:57;24.29;66.49
70534;SHT31;58088;51.186;17.130;2023-06-22T00:35:25;24.31;66.36
70534;SHT31;58088;51.186;17.130;2023-06-22T00:37:55;24.33;66.06
70534;SHT31;58088;51.186;17.130;2023-06-22T00:40:30;24.34;66.00
70534;SHT31;58088;51.186;17.130;2023-06-22T00:42:58;24.33;65.90
70534;SHT31;58088;51.186;17.130;2023-06-22T00:45:25;24.30;65.88
70534;SHT31;58088;51.186;17.130;2023-06-22T00:47:53;24.25;65.79
70534;SHT31;58088;51.186;17.130;2023-06-22T00:50:25;24.21;65.86
70534;SHT31;58088;51.186;17.130;2023-06-22T00:52:57;24.17;65.75
70534;SHT31;58088;51.186;17.130;2023-06-22T00:55:37;24.14;65.85
70534;SHT31;58088;51.186;17.130;2023-06-22T00:58:13;24.10;65.69
70534;SHT31;58088;51.186;17.130;2023-06-22T01:00:41;24.07;65.48
70534;SHT31;58088;51.186;17.130;2023-06-22T01:03:08;23.99;65.59
70534;SHT31;58088;51.186;17.130;2023-06-22T01:05:36;23.90;65.71
70534;SHT31;58088;51.186;17.130;2023-06-22T01:08:08;23.80;66.19
70534;SHT31;58088;51.186;17.130;2023-06-22T01:13:50;23.60;66.69
70534;SHT31;58088;51.186;17.130;2023-06-22T01:19:15;23.46;66.92
70534;SHT31;58088;51.186;17.130;2023-06-22T01:22:20;23.37;67.36
70534;SHT31;58088;51.186;17.130;2023-06-22T01:24:55;23.36;67.47
70534;SHT31;58088;51.186;17.130;2023-06-22T01:28:19;23.37;67.64
70534;SHT31;58088;51.186;17.130;2023-06-22T01:30:49;23.36;67.91
70534;SHT31;58088;51.186;17.130;2023-06-22T01:33:29;23.35;67.83
70534;SHT31;58088;51.186;17.130;2023-06-22T01:36:03;23.30;67.72
70534;SHT31;58088;51.186;17.130;2023-06-22T01:38:31;23.27;67.61
70534;SHT31;58088;51.186;17.130;2023-06-22T01:40:59;23.28;67.97
70534;SHT31;58088;51.186;17.130;2023-06-22T01:43:27;23.28;68.07
70534;SHT31;58088;51.186;17.130;2023-06-22T01:45:55;23.30;68.17
70534;SHT31;58088;51.186;17.130;2023-06-22T01:48:25;23.27;68.18
70534;SHT31;58088;51.186;17.130;2023-06-22T01:50:53;23.25;68.15
70534;SHT31;58088;51.186;17.130;2023-06-22T01:53:21;23.23;68.19
70534;SHT31;58088;51.186;17.130;2023-06-22T01:55:50;23.19;68.20
70534;SHT31;58088;51.186;17.130;2023-06-22T01:58:16;23.17;68.14
70534;SHT31;58088;51.186;17.130;2023-06-22T02:00:51;23.16;68.08
70534;SHT31;58088;51.186;17.130;2023-06-22T02:04:06;23.12;68.07
70534;SHT31;58088;51.186;17.130;2023-06-22T02:06:39;23.10;67.82
70534;SHT31;58088;51.186;17.130;2023-06-22T02:09:15;23.09;67.67
70534;SHT31;58088;51.186;17.130;2023-06-22T02:11:44;23.00;67.34
70534;SHT31;58088;51.186;17.130;2023-06-22T02:14:13;22.93;67.80
70534;SHT31;58088;51.186;17.130;2023-06-22T02:16:41;22.89;67.95
70534;SHT31;58088;51.186;17.130;2023-06-22T02:19:08;22.81;68.24
70534;SHT31;58088;51.186;17.130;2023-06-22T02:21:35;22.78;68.38
70534;SHT31;58088;51.186;17.130;2023-06-22T02:24:01;22.78;68.57
70534;SHT31;58088;51.186;17.130;2023-06-22T02:26:29;22.76;68.50
70534;SHT31;58088;51.186;17.130;2023-06-22T02:28:57;22.70;68.00
70534;SHT31;58088;51.186;17.130;2023-06-22T02:31:23;22.68;68.00
70534;SHT31;58088;51.186;17.130;2023-06-22T02:33:58;22.65;67.72
70534;SHT31;58088;51.186;17.130;2023-06-22T02:36:25;22.62;67.55
70534;SHT31;58088;51.186;17.130;2023-06-22T02:38:56;22.60;67.54
70534;SHT31;58088;51.186;17.130;2023-06-22T02:41:26;22.53;67.49
70534;SHT31;58088;51.186;17.130;2023-06-22T02:43:55;22.51;67.46
70534;SHT31;58088;51.186;17.130;2023-06-22T02:46:21;22.49;67.61
70534;SHT31;58088;51.186;17.130;2023-06-22T02:48:48;22.46;67.81
70534;SHT31;58088;51.186;17.130;2023-06-22T02:51:14;22.48;67.72
70534;SHT31;58088;51.186;17.130;2023-06-22T02:53:41;22.50;67.79
70534;SHT31;58088;51.186;17.130;2023-06-22T02:56:11;22.51;67.86
70534;SHT31;58088;51.186;17.130;2023-06-22T02:58:38;22.53;67.44
70534;SHT31;58088;51.186;17.130;2023-06-22T03:01:06;22.52;66.78
70534;SHT31;58088;51.186;17.130;2023-06-22T03:03:33;22.58;66.48
70534;SHT31;58088;51.186;17.130;2023-06-22T03:05:59;22.66;66.47
70534;SHT31;58088;51.186;17.130;2023-06-22T03:08:28;22.77;66.83
70534;SHT31;58088;51.186;17.130;2023-06-22T03:10:55;22.80;66.92
70534;SHT31;58088;51.186;17.130;2023-06-22T03:13:21;22.86;67.46
70534;SHT31;58088;51.186;17.130;2023-06-22T03:15:48;23.05;67.58
70534;SHT31;58088;51.186;17.130;2023-06-22T03:18:14;23.31;67.42
70534;SHT31;58088;51.186;17.130;2023-06-22T03:20:41;23.54;67.02
70534;SHT31;58088;51.186;17.130;2023-06-22T03:23:08;23.70;66.85
70534;SHT31;58088;51.186;17.130;2023-06-22T03:25:35;23.85;66.67
70534;SHT31;58088;51.186;17.130;2023-06-22T03:28:01;24.03;66.42
70534;SHT31;58088;51.186;17.130;2023-06-22T03:30:28;24.19;66.21
70534;SHT31;58088;51.186;17.130;2023-06-22T03:32:54;24.33;66.01
70534;SHT31;58088;51.186;17.130;2023-06-22T03:35:20;24.47;65.86
70534;SHT31;58088;51.186;17.130;2023-06-22T03:37:47;24.66;65.61
70534;SHT31;58088;51.186;17.130;2023-06-22T03:40:13;24.89;65.13
70534;SHT31;58088;51.186;17.130;2023-06-22T03:42:39;25.13;64.69
70534;SHT31;58088;51.186;17.130;2023-06-22T03:45:06;25.29;64.26
70534;SHT31;58088;51.186;17.130;2023-06-22T03:47:33;25.39;63.99
70534;SHT31;58088;51.186;17.130;2023-06-22T03:49:59;25.49;63.75
70534;SHT31;58088;51.186;17.130;2023-06-22T03:52:26;25.65;63.42
70534;SHT31;58088;51.186;17.130;2023-06-22T03:54:52;25.82;63.09
70534;SHT31;58088;51.186;17.130;2023-06-22T03:57:18;25.96;62.88
70534;SHT31;58088;51.186;17.130;2023-06-22T03:59:44;26.12;62.60
70534;SHT31;58088;51.186;17.130;2023-06-22T04:02:10;26.30;62.29
70534;SHT31;58088;51.186;17.130;2023-06-22T04:04:40;26.48;62.01
70534;SHT31;58088;51.186;17.130;2023-06-22T04:07:06;26.60;61.76
70534;SHT31;58088;51.186;17.130;2023-06-22T04:09:33;26.75;61.44
70534;SHT31;58088;51.186;17.130;2023-06-22T04:11:59;26.88;61.17
70534;SHT31;58088;51.186;17.130;2023-06-22T04:14:26;26.95;61.01
70534;SHT31;58088;51.186;17.130;2023-06-22T04:16:52;27.00;60.93
70534;SHT31;58088;51.186;17.130;2023-06-22T04:19:18;27.16;60.52
70534;SHT31;58088;51.186;17.130;2023-06-22T04:21:44;27.35;60.19
70534;SHT31;58088;51.186;17.130;2023-06-22T04:24:11;27.65;59.76
70534;SHT31;58088;51.186;17.130;2023-06-22T04:26:37;27.90;59.02
70534;SHT31;58088;51.186;17.130;2023-06-22T04:29:04;28.14;58.70
70534;SHT31;58088;51.186;17.130;2023-06-22T04:31:31;28.39;58.23
70534;SHT31;58088;51.186;17.130;2023-06-22T04:34:03;28.64;57.74
70534;SHT31;58088;51.186;17.130;2023-06-22T04:36:38;28.96;57.17
70534;SHT31;58088;51.186;17.130;2023-06-22T04:39:07;29.15;56.66
70534;SHT31;58088;51.186;17.130;2023-06-22T04:41:38;29.26;56.26
70534;SHT31;58088;51.186;17.130;2023-06-22T04:44:15;29.32;56.10
70534;SHT31;58088;51.186;17.130;2023-06-22T04:46:59;29.33;55.93
70534;SHT31;58088;51.186;17.130;2023-06-22T04:49:29;29.30;56.08
70534;SHT31;58088;51.186;17.130;2023-06-22T04:52:01;29.35;56.16
70534;SHT31;58088;51.186;17.130;2023-06-22T04:54:33;29.45;55.85
70534;SHT31;58088;51.186;17.130;2023-06-22T04:57:01;29.64;55.37
70534;SHT31;58088;51.186;17.130;2023-06-22T04:59:30;29.89;54.82
70534;SHT31;58088;51.186;17.130;2023-06-22T05:01:57;30.16;54.49
70534;SHT31;58088;51.186;17.130;2023-06-22T05:04:26;30.49;53.84
70534;SHT31;58088;51.186;17.130;2023-06-22T05:06:56;30.80;53.15
70534;SHT31;58088;51.186;17.130;2023-06-22T05:09:24;31.09;52.47
70534;SHT31;58088;51.186;17.130;2023-06-22T05:11:50;31.34;51.97
70534;SHT31;58088;51.186;17.130;2023-06-22T05:14:17;31.44;51.62
70534;SHT31;58088;51.186;17.130;2023-06-22T05:16:44;31.55;51.38
70534;SHT31;58088;51.186;17.130;2023-06-22T05:19:12;31.76;50.69
70534;SHT31;58088;51.186;17.130;2023-06-22T05:21:38;31.85;49.84
70534;SHT31;58088;51.186;17.130;2023-06-22T05:24:04;31.88;49.56
70534;SHT31;58088;51.186;17.130;2023-06-22T05:26:32;31.93;48.99
70534;SHT31;58088;51.186;17.130;2023-06-22T05:29:00;31.89;48.19
70534;SHT31;58088;51.186;17.130;2023-06-22T05:31:29;31.88;47.94
70534;SHT31;58088;51.186;17.130;2023-06-22T05:33:55;31.99;47.89
70534;SHT31;58088;51.186;17.130;2023-06-22T05:36:22;32.01;47.12
70534;SHT31;58088;51.186;17.130;2023-06-22T05:38:51;31.84;47.19
70534;SHT31;58088;51.186;17.130;2023-06-22T05:41:18;31.60;47.26
70534;SHT31;58088;51.186;17.130;2023-06-22T05:43:45;31.36;47.43
70534;SHT31;58088;51.186;17.130;2023-06-22T05:46:11;31.22;47.34
70534;SHT31;58088;51.186;17.130;2023-06-22T05:48:37;31.32;47.76
70534;SHT31;58088;51.186;17.130;2023-06-22T05:51:03;31.43;47.37
70534;SHT31;58088;51.186;17.130;2023-06-22T05:53:29;31.48;47.22
70534;SHT31;58088;51.186;17.130;2023-06-22T05:55:55;31.45;46.79
70534;SHT31;58088;51.186;17.130;2023-06-22T05:58:21;31.39;46.87
70534;SHT31;58088;51.186;17.130;2023-06-22T06:00:47;31.47;46.84
70534;SHT31;58088;51.186;17.130;2023-06-22T06:03:14;31.44;46.79
70534;SHT31;58088;51.186;17.130;2023-06-22T06:05:42;31.48;46.94
70534;SHT31;58088;51.186;17.130;2023-06-22T06:08:09;31.51;46.70
70534;SHT31;58088;51.186;17.130;2023-06-22T06:10:36;31.43;46.51
70534;SHT31;58088;51.186;17.130;2023-06-22T06:13:02;31.52;46.73
70534;SHT31;58088;51.186;17.130;2023-06-22T06:15:30;31.51;46.86
70534;SHT31;58088;51.186;17.130;2023-06-22T06:17:57;31.70;46.85
70534;SHT31;58088;51.186;17.130;2023-06-22T06:20:24;31.74;46.48
70534;SHT31;58088;51.186;17.130;2023-06-22T06:22:53;31.74;46.48
70534;SHT31;58088;51.186;17.130;2023-06-22T06:25:19;31.88;46.42
70534;SHT31;58088;51.186;17.130;2023-06-22T06:27:47;31.73;45.99
70534;SHT31;58088;51.186;17.130;2023-06-22T06:30:17;31.66;46.18
70534;SHT31;58088;51.186;17.130;2023-06-22T06:32:44;31.55;46.30
70534;SHT31;58088;51.186;17.130;2023-06-22T06:35:11;31.49;46.58
70534;SHT31;58088;51.186;17.130;2023-06-22T06:37:42;31.25;46.81
70534;SHT31;58088;51.186;17.130;2023-06-22T06:40:11;31.05;47.03
70534;SHT31;58088;51.186;17.130;2023-06-22T06:42:41;30.79;47.63
70534;SHT31;58088;51.186;17.130;2023-06-22T06:45:11;30.41;48.41
70534;SHT31;58088;51.186;17.130;2023-06-22T06:47:39;30.25;48.71
70534;SHT31;58088;51.186;17.130;2023-06-22T06:50:05;30.53;48.47
70534;SHT31;58088;51.186;17.130;2023-06-22T06:52:33;30.96;47.86
70534;SHT31;58088;51.186;17.130;2023-06-22T06:54:59;31.21;46.88
70534;SHT31;58088;51.186;17.130;2023-06-22T06:57:25;31.39;46.69
70534;SHT31;58088;51.186;17.130;2023-06-22T06:59:55;31.66;46.55
70534;SHT31;58088;51.186;17.130;2023-06-22T07:02:22;32.02;45.95
70534;SHT31;58088;51.186;17.130;2023-06-22T07:04:49;32.29;45.68
70534;SHT31;58088;51.186;17.130;2023-06-22T07:07:16;32.46;44.82
70534;SHT31;58088;51.186;17.130;2023-06-22T07:09:43;32.56;44.76
70534;SHT31;58088;51.186;17.130;2023-06-22T07:12:09;32.72;44.92
70534;SHT31;58088;51.186;17.130;2023-06-22T07:14:35;32.97;44.61
70534;SHT31;58088;51.186;17.130;2023-06-22T07:17:01;33.18;44.14
70534;SHT31;58088;51.186;17.130;2023-06-22T07:19:27;33.28;43.44
70534;SHT31;58088;51.186;17.130;2023-06-22T07:21:54;33.39;43.34
70534;SHT31;58088;51.186;17.130;2023-06-22T07:24:21;33.53;43.10
70534;SHT31;58088;51.186;17.130;2023-06-22T07:26:48;33.70;43.16
70534;SHT31;58088;51.186;17.130;2023-06-22T07:29:16;33.74;43.23
70534;SHT31;58088;51.186;17.130;2023-06-22T07:31:43;33.55;43.13
70534;SHT31;58088;51.186;17.130;2023-06-22T07:34:10;33.51;43.40
70534;SHT31;58088;51.186;17.130;2023-06-22T07:36:36;33.44;43.30
70534;SHT31;58088;51.186;17.130;2023-06-22T07:39:03;33.21;43.71
70534;SHT31;58088;51.186;17.130;2023-06-22T07:41:30;33.02;43.57
70534;SHT31;58088;51.186;17.130;2023-06-22T07:43:57;32.93;43.63
70534;SHT31;58088;51.186;17.130;2023-06-22T07:46:23;32.82;43.56
70534;SHT31;58088;51.186;17.130;2023-06-22T07:48:49;32.89;43.34
70534;SHT31;58088;51.186;17.130;2023-06-22T07:51:15;33.03;42.96
70534;SHT31;58088;51.186;17.130;2023-06-22T07:53:41;33.13;43.36
70534;SHT31;58088;51.186;17.130;2023-06-22T07:56:11;33.22;43.34
70534;SHT31;58088;51.186;17.130;2023-06-22T07:58:39;33.23;42.19
70534;SHT31;58088;51.186;17.130;2023-06-22T08:01:05;33.25;42.52
70534;SHT31;58088;51.186;17.130;2023-06-22T08:03:32;33.28;43.10
70534;SHT31;58088;51.186;17.130;2023-06-22T08:05:58;33.16;42.48
70534;SHT31;58088;51.186;17.130;2023-06-22T08:08:24;33.06;42.70
70534;SHT31;58088;51.186;17.130;2023-06-22T08:10:50;33.08;42.97
70534;SHT31;58088;51.186;17.130;2023-06-22T08:13:16;32.95;42.29
70534;SHT31;58088;51.186;17.130;2023-06-22T08:15:42;32.75;42.66
70534;SHT31;58088;51.186;17.130;2023-06-22T08:18:09;32.62;43.10
70534;SHT31;58088;51.186;17.130;2023-06-22T08:20:36;32.65;43.50
70534;SHT31;58088;51.186;17.130;2023-06-22T08:23:02;32.70;43.23
70534;SHT31;58088;51.186;17.130;2023-06-22T08:25:34;32.79;42.87
70534;SHT31;58088;51.186;17.130;2023-06-22T08:28:01;32.72;42.41
70534;SHT31;58088;51.186;17.130;2023-06-22T08:30:29;32.56;42.88
70534;SHT31;58088;51.186;17.130;2023-06-22T08:32:55;32.66;43.05
70534;SHT31;58088;51.186;17.130;2023-06-22T08:35:22;32.81;42.26
70534;SHT31;58088;51.186;17.130;2023-06-22T08:37:49;32.86;42.17
70534;SHT31;58088;51.186;17.130;2023-06-22T08:40:18;32.85;42.49
70534;SHT31;58088;51.186;17.130;2023-06-22T08:42:45;32.87;42.89
70534;SHT31;58088;51.186;17.130;2023-06-22T08:45:13;32.91;42.68
70534;SHT31;58088;51.186;17.130;2023-06-22T08:47:40;33.06;42.55
70534;SHT31;58088;51.186;17.130;2023-06-22T08:50:08;33.18;42.34
70534;SHT31;58088;51.186;17.130;2023-06-22T08:52:37;33.20;41.99
70534;SHT31;58088;51.186;17.130;2023-06-22T08:55:07;33.06;42.05
70534;SHT31;58088;51.186;17.130;2023-06-22T08:57:35;33.10;42.22
70534;SHT31;58088;51.186;17.130;2023-06-22T09:00:05;33.18;41.94
70534;SHT31;58088;51.186;17.130;2023-06-22T09:02:46;33.08;41.59
70534;SHT31;58088;51.186;17.130;2023-06-22T09:05:13;33.03;41.36
70534;SHT31;58088;51.186;17.130;2023-06-22T09:07:41;33.06;41.63
70534;SHT31;58088;51.186;17.130;2023-06-22T09:10:07;32.92;41.45
70534;SHT31;58088;51.186;17.130;2023-06-22T09:12:34;32.69;41.42
70534;SHT31;58088;51.186;17.130;2023-06-22T09:15:02;32.73;41.45
70534;SHT31;58088;51.186;17.130;2023-06-22T09:17:29;32.74;40.70
70534;SHT31;58088;51.186;17.130;2023-06-22T09:19:55;32.68;40.59
70534;SHT31;58088;51.186;17.130;2023-06-22T09:22:21;32.73;40.64
70534;SHT31;58088;51.186;17.130;2023-06-22T09:24:50;32.75;40.97
70534;SHT31;58088;51.186;17.130;2023-06-22T09:27:16;32.89;41.09
70534;SHT31;58088;51.186;17.130;2023-06-22T09:29:42;33.03;40.94
70534;SHT31;58088;51.186;17.130;2023-06-22T09:32:08;33.13;41.04
70534;SHT31;58088;51.186;17.130;2023-06-22T09:34:35;33.25;41.65
70534;SHT31;58088;51.186;17.130;2023-06-22T09:37:01;33.36;41.19
70534;SHT31;58088;51.186;17.130;2023-06-22T09:39:28;33.26;40.48
70534;SHT31;58088;51.186;17.130;2023-06-22T09:41:54;33.12;40.56
70534;SHT31;58088;51.186;17.130;2023-06-22T09:44:20;33.17;40.57
70534;SHT31;58088;51.186;17.130;2023-06-22T09:46:46;33.25;40.33
70534;SHT31;58088;51.186;17.130;2023-06-22T09:49:12;33.33;40.22
70534;SHT31;58088;51.186;17.130;2023-06-22T09:51:39;33.41;39.87
70534;SHT31;58088;51.186;17.130;2023-06-22T09:54:05;33.45;38.85
70534;SHT31;58088;51.186;17.130;2023-06-22T09:56:31;33.38;38.56
70534;SHT31;58088;51.186;17.130;2023-06-22T09:58:57;33.38;38.82
70534;SHT31;58088;51.186;17.130;2023-06-22T10:01:23;33.51;38.38
70534;SHT31;58088;51.186;17.130;2023-06-22T10:03:52;33.60;37.84
70534;SHT31;58088;51.186;17.130;2023-06-22T10:06:22;33.67;37.84
70534;SHT31;58088;51.186;17.130;2023-06-22T10:08:49;33.81;38.04
70534;SHT31;58088;51.186;17.130;2023-06-22T10:11:18;33.86;37.49
70534;SHT31;58088;51.186;17.130;2023-06-22T10:13:45;33.89;36.79
70534;SHT31;58088;51.186;17.130;2023-06-22T10:16:11;33.82;37.03
70534;SHT31;58088;51.186;17.130;2023-06-22T10:18:37;33.78;36.73
70534;SHT31;58088;51.186;17.130;2023-06-22T10:21:03;33.76;36.86
70534;SHT31;58088;51.186;17.130;2023-06-22T10:23:29;33.83;36.32
70534;SHT31;58088;51.186;17.130;2023-06-22T10:25:56;33.83;37.41
70534;SHT31;58088;51.186;17.130;2023-06-22T10:28:23;33.90;37.88
70534;SHT31;58088;51.186;17.130;2023-06-22T10:30:49;34.00;37.79
70534;SHT31;58088;51.186;17.130;2023-06-22T10:33:15;34.10;37.14
70534;SHT31;58088;51.186;17.130;2023-06-22T10:35:42;34.10;36.99
70534;SHT31;58088;51.186;17.130;2023-06-22T10:38:08;34.09;36.54
70534;SHT31;58088;51.186;17.130;2023-06-22T10:40:34;34.00;36.25
70534;SHT31;58088;51.186;17.130;2023-06-22T10:43:00;33.79;36.32
70534;SHT31;58088;51.186;17.130;2023-06-22T10:45:26;33.68;36.42
70534;SHT31;58088;51.186;17.130;2023-06-22T10:47:55;33.63;36.14
70534;SHT31;58088;51.186;17.130;2023-06-22T10:50:21;33.58;36.67
70534;SHT31;58088;51.186;17.130;2023-06-22T10:52:49;33.64;36.69
70534;SHT31;58088;51.186;17.130;2023-06-22T10:55:15;33.68;36.71
70534;SHT31;58088;51.186;17.130;2023-06-22T10:57:41;33.77;37.80
70534;SHT31;58088;51.186;17.130;2023-06-22T11:00:10;33.75;37.55
70534;SHT31;58088;51.186;17.130;2023-06-22T11:02:37;33.68;37.74
70534;SHT31;58088;51.186;17.130;2023-06-22T11:05:03;33.72;37.57
70534;SHT31;58088;51.186;17.130;2023-06-22T11:07:30;33.73;36.16
70534;SHT31;58088;51.186;17.130;2023-06-22T11:09:57;33.73;35.93
70534;SHT31;58088;51.186;17.130;2023-06-22T11:12:23;33.75;35.92
70534;SHT31;58088;51.186;17.130;2023-06-22T11:14:49;33.83;36.11
70534;SHT31;58088;51.186;17.130;2023-06-22T11:17:18;33.90;36.16
70534;SHT31;58088;51.186;17.130;2023-06-22T11:19:44;33.97;36.40
70534;SHT31;58088;51.186;17.130;2023-06-22T11:22:11;33.93;36.31
70534;SHT31;58088;51.186;17.130;2023-06-22T11:24:37;33.56;36.23
70534;SHT31;58088;51.186;17.130;2023-06-22T11:27:03;33.23;36.74
70534;SHT31;58088;51.186;17.130;2023-06-22T11:29:29;33.00;36.96
70534;SHT31;58088;51.186;17.130;2023-06-22T11:31:57;32.96;36.99
70534;SHT31;58088;51.186;17.130;2023-06-22T11:34:23;32.95;37.38
70534;SHT31;58088;51.186;17.130;2023-06-22T11:36:49;32.88;37.19
70534;SHT31;58088;51.186;17.130;2023-06-22T11:39:15;32.64;37.06
70534;SHT31;58088;51.186;17.130;2023-06-22T11:41:41;32.63;37.76
70534;SHT31;58088;51.186;17.130;2023-06-22T11:44:08;32.80;37.66
70534;SHT31;58088;51.186;17.130;2023-06-22T11:46:34;33.00;38.00
70534;SHT31;58088;51.186;17.130;2023-06-22T11:49:01;33.15;38.28
70534;SHT31;58088;51.186;17.130;2023-06-22T11:51:28;33.23;37.23
70534;SHT31;58088;51.186;17.130;2023-06-22T11:53:56;33.28;36.72
70534;SHT31;58088;51.186;17.130;2023-06-22T11:56:23;33.23;36.43
70534;SHT31;58088;51.186;17.130;2023-06-22T11:58:49;33.27;36.80
70534;SHT31;58088;51.186;17.130;2023-06-22T12:01:15;33.35;36.92
70534;SHT31;58088;51.186;17.130;2023-06-22T12:03:41;33.36;36.99
70534;SHT31;58088;51.186;17.130;2023-06-22T12:06:09;33.38;37.12
70534;SHT31;58088;51.186;17.130;2023-06-22T12:08:35;33.35;37.00
70534;SHT31;58088;51.186;17.130;2023-06-22T12:11:01;33.29;37.64
70534;SHT31;58088;51.186;17.130;2023-06-22T12:13:27;33.24;37.22
70534;SHT31;58088;51.186;17.130;2023-06-22T12:15:53;33.13;37.27
70534;SHT31;58088;51.186;17.130;2023-06-22T12:18:20;33.16;38.03
70534;SHT31;58088;51.186;17.130;2023-06-22T12:20:47;33.19;38.13
70534;SHT31;58088;51.186;17.130;2023-06-22T12:23:14;33.26;37.66
70534;SHT31;58088;51.186;17.130;2023-06-22T12:25:41;33.37;37.55
70534;SHT31;58088;51.186;17.130;2023-06-22T12:28:07;33.44;37.75
70534;SHT31;58088;51.186;17.130;2023-06-22T12:30:33;33.52;37.57
70534;SHT31;58088;51.186;17.130;2023-06-22T12:32:59;33.54;37.28
70534;SHT31;58088;51.186;17.130;2023-06-22T12:35:25;33.49;37.12
70534;SHT31;58088;51.186;17.130;2023-06-22T12:37:51;33.35;37.08
70534;SHT31;58088;51.186;17.130;2023-06-22T12:40:18;33.13;37.58
70534;SHT31;58088;51.186;17.130;2023-06-22T12:42:45;32.89;37.39
70534;SHT31;58088;51.186;17.130;2023-06-22T12:45:11;32.78;37.39
70534;SHT31;58088;51.186;17.130;2023-06-22T12:47:37;32.80;37.74
70534;SHT31;58088;51.186;17.130;2023-06-22T12:50:04;32.79;38.01
70534;SHT31;58088;51.186;17.130;2023-06-22T12:52:31;32.81;37.74
70534;SHT31;58088;51.186;17.130;2023-06-22T12:54:58;32.88;37.62
70534;SHT31;58088;51.186;17.130;2023-06-22T12:57:24;32.89;37.34
70534;SHT31;58088;51.186;17.130;2023-06-22T12:59:51;32.90;37.58
70534;SHT31;58088;51.186;17.130;2023-06-22T13:02:17;32.95;37.09
70534;SHT31;58088;51.186;17.130;2023-06-22T13:04:43;32.99;36.80
70534;SHT31;58088;51.186;17.130;2023-06-22T13:07:09;33.04;36.59
70534;SHT31;58088;51.186;17.130;2023-06-22T13:09:36;33.00;36.10
70534;SHT31;58088;51.186;17.130;2023-06-22T13:12:02;32.97;36.23
70534;SHT31;58088;51.186;17.130;2023-06-22T13:14:29;33.08;36.40
70534;SHT31;58088;51.186;17.130;2023-06-22T13:16:58;33.07;36.27
70534;SHT31;58088;51.186;17.130;2023-06-22T13:19:25;33.10;36.29
70534;SHT31;58088;51.186;17.130;2023-06-22T13:21:54;33.15;35.99
70534;SHT31;58088;51.186;17.130;2023-06-22T13:24:20;33.25;36.02
70534;SHT31;58088;51.186;17.130;2023-06-22T13:26:46;33.17;36.18
70534;SHT31;58088;51.186;17.130;2023-06-22T13:29:12;33.08;36.25
70534;SHT31;58088;51.186;17.130;2023-06-22T13:31:38;33.06;36.66
70534;SHT31;58088;51.186;17.130;2023-06-22T13:34:04;33.03;36.71
70534;SHT31;58088;51.186;17.130;2023-06-22T13:36:30;33.08;36.64
70534;SHT31;58088;51.186;17.130;2023-06-22T13:38:57;33.06;36.64
70534;SHT31;58088;51.186;17.130;2023-06-22T13:41:23;33.03;36.77
70534;SHT31;58088;51.186;17.130;2023-06-22T13:43:49;32.96;36.58
70534;SHT31;58088;51.186;17.130;2023-06-22T13:46:16;32.92;36.36
70534;SHT31;58088;51.186;17.130;2023-06-22T13:48:42;32.87;36.15
70534;SHT31;58088;51.186;17.130;2023-06-22T13:51:08;32.84;36.57
70534;SHT31;58088;51.186;17.130;2023-06-22T13:53:34;32.86;36.44
70534;SHT31;58088;51.186;17.130;2023-06-22T13:56:00;32.90;36.48
70534;SHT31;58088;51.186;17.130;2023-06-22T13:58:26;32.96;36.26
70534;SHT31;58088;51.186;17.130;2023-06-22T14:00:53;32.98;35.83
70534;SHT31;58088;51.186;17.130;2023-06-22T14:03:19;32.96;35.71
70534;SHT31;58088;51.186;17.130;2023-06-22T14:05:45;32.95;35.95
70534;SHT31;58088;51.186;17.130;2023-06-22T14:08:12;32.95;36.03
70534;SHT31;58088;51.186;17.130;2023-06-22T14:10:38;32.94;36.02
70534;SHT31;58088;51.186;17.130;2023-06-22T14:13:04;32.99;35.91
70534;SHT31;58088;51.186;17.130;2023-06-22T14:15:31;33.05;36.20
70534;SHT31;58088;51.186;17.130;2023-06-22T14:17:58;33.07;36.07
70534;SHT31;58088;51.186;17.130;2023-06-22T14:20:24;33.04;35.88
70534;SHT31;58088;51.186;17.130;2023-06-22T14:22:51;32.98;35.90
70534;SHT31;58088;51.186;17.130;2023-06-22T14:25:17;32.96;35.97
70534;SHT31;58088;51.186;17.130;2023-06-22T14:27:43;32.92;35.86
70534;SHT31;58088;51.186;17.130;2023-06-22T14:30:10;32.97;35.87
70534;SHT31;58088;51.186;17.130;2023-06-22T14:32:36;33.03;35.90
70534;SHT31;58088;51.186;17.130;2023-06-22T14:35:02;33.06;35.91
70534;SHT31;58088;51.186;17.130;2023-06-22T14:37:28;33.04;36.19
70534;SHT31;58088;51.186;17.130;2023-06-22T14:39:54;33.04;36.70
70534;SHT31;58088;51.186;17.130;2023-06-22T14:42:21;33.05;36.65
70534;SHT31;58088;51.186;17.130;2023-06-22T14:44:47;33.03;36.16
70534;SHT31;58088;51.186;17.130;2023-06-22T14:47:14;33.02;36.20
70534;SHT31;58088;51.186;17.130;2023-06-22T14:49:40;33.04;35.97
70534;SHT31;58088;51.186;17.130;2023-06-22T14:52:06;33.01;35.72
70534;SHT31;58088;51.186;17.130;2023-06-22T14:54:33;32.94;35.81
70534;SHT31;58088;51.186;17.130;2023-06-22T14:56:59;32.94;36.25
70534;SHT31;58088;51.186;17.130;2023-06-22T14:59:25;32.98;36.09
70534;SHT31;58088;51.186;17.130;2023-06-22T15:01:51;33.01;36.38
70534;SHT31;58088;51.186;17.130;2023-06-22T15:04:18;33.00;36.19
70534;SHT31;58088;51.186;17.130;2023-06-22T15:06:44;32.98;36.22
70534;SHT31;58088;51.186;17.130;2023-06-22T15:09:10;33.03;36.74
70534;SHT31;58088;51.186;17.130;2023-06-22T15:11:37;33.05;36.33
70534;SHT31;58088;51.186;17.130;2023-06-22T15:14:03;33.00;36.13
70534;SHT31;58088;51.186;17.130;2023-06-22T15:16:29;32.99;36.26
70534;SHT31;58088;51.186;17.130;2023-06-22T15:18:55;32.91;36.29
70534;SHT31;58088;51.186;17.130;2023-06-22T15:21:21;32.83;36.37
70534;SHT31;58088;51.186;17.130;2023-06-22T15:23:47;32.83;36.61